Time;durP1;ratioP1;P1;durP2;ratioP2;P2;SDS_P1;SDS_P2;PMS_P1;PMS_P2;Temp;Humidity;BMP_temperature;BMP_pressure;BME280_temperature;BME280_humidity;BME280_pressure;Samples;Min_cycle;Max_cycle;Signal;HPM_P1;HPM_P2
2023/06/12 00:01:12;;;;;;;8.15;3.00;;;20.60;87.10;;;;;;5034011;28;20196;-80
2023/06/12 00:03:40;;;;;;;5.63;2.47;;;20.50;87.20;;;;;;5044583;28;20042;-80
2023/06/12 00:06:09;;;;;;;7.05;2.70;;;20.50;87.50;;;;;;5034819;28;20460;-80
2023/06/12 00:08:35;;;;;;;6.00;2.50;;;20.40;87.70;;;;;;5050477;28;20045;-80
2023/06/12 00:11:07;;;;;;;6.85;2.70;;;20.30;87.90;;;;;;5033126;28;20408;-80
2023/06/12 00:13:33;;;;;;;3.42;2.53;;;20.30;88.00;;;;;;5050473;28;20095;-80
2023/06/12 00:15:58;;;;;;;4.40;2.67;;;20.20;88.20;;;;;;5033484;28;20045;-80
2023/06/12 00:18:24;;;;;;;5.30;2.40;;;20.20;88.40;;;;;;5031858;28;20270;-79
2023/06/12 00:20:49;;;;;;;6.38;2.60;;;20.10;88.50;;;;;;5034143;28;20400;-80
2023/06/12 00:23:15;;;;;;;4.05;2.35;;;20.10;88.60;;;;;;5050460;28;20038;-80
2023/06/12 00:25:40;;;;;;;6.97;2.58;;;20.00;88.70;;;;;;5050362;28;20034;-80
2023/06/12 00:28:06;;;;;;;4.38;2.60;;;20.00;88.90;;;;;;5033215;28;20045;-79
2023/06/12 00:30:31;;;;;;;4.18;2.47;;;19.90;89.00;;;;;;5033597;28;20045;-79
2023/06/12 00:32:57;;;;;;;4.28;2.67;;;19.90;89.10;;;;;;5033079;28;20046;-80
2023/06/12 00:35:22;;;;;;;6.00;2.38;;;19.80;89.40;;;;;;5035022;28;20034;-79
2023/06/12 00:37:49;;;;;;;3.75;2.47;;;19.70;89.50;;;;;;5033595;28;20033;-79
2023/06/12 00:40:15;;;;;;;4.78;2.50;;;19.70;89.70;;;;;;5050585;28;20033;-79
2023/06/12 00:42:48;;;;;;;5.15;2.47;;;19.60;89.80;;;;;;5049980;28;20104;-80
2023/06/12 00:45:15;;;;;;;8.60;2.25;;;19.60;90.10;;;;;;5033697;28;20038;-80
2023/06/12 00:47:42;;;;;;;4.95;2.50;;;19.50;90.10;;;;;;5032096;28;20042;-80
2023/06/12 00:50:12;;;;;;;4.13;2.38;;;19.50;90.20;;;;;;5032878;28;20037;-80
2023/06/12 00:52:46;;;;;;;5.78;2.35;;;19.40;90.30;;;;;;5048752;28;20143;-80
2023/06/12 00:55:11;;;;;;;5.95;2.50;;;19.40;90.30;;;;;;5032678;28;20073;-80
2023/06/12 00:57:42;;;;;;;6.43;2.60;;;19.30;90.30;;;;;;5033006;28;20454;-80
2023/06/12 01:00:12;;;;;;;5.25;2.20;;;19.30;90.40;;;;;;5033270;28;20053;-80
2023/06/12 01:02:47;;;;;;;5.22;2.83;;;19.30;90.40;;;;;;5049667;28;20037;-80
2023/06/12 01:05:15;;;;;;;6.57;2.33;;;19.20;90.40;;;;;;5050548;28;20109;-80
2023/06/12 01:08:17;;;;;;;4.88;2.30;;;19.20;90.40;;;;;;5050177;28;20077;-79
2023/06/12 01:11:07;;;;;;;5.18;2.38;;;19.10;90.60;;;;;;5033450;28;20045;-79
2023/06/12 01:13:33;;;;;;;6.72;2.50;;;19.00;90.60;;;;;;5033137;28;20033;-79
2023/06/12 01:15:59;;;;;;;6.80;2.63;;;19.00;90.60;;;;;;5032044;28;20504;-79
2023/06/12 01:18:25;;;;;;;5.72;2.80;;;18.90;90.60;;;;;;5033475;28;20049;-79
2023/06/12 01:20:55;;;;;;;5.40;2.55;;;18.80;90.70;;;;;;5031799;28;20041;-79
2023/06/12 01:23:55;;;;;;;5.10;2.45;;;18.80;90.80;;;;;;5030006;28;20041;-79
2023/06/12 01:26:43;;;;;;;3.50;2.22;;;18.80;91.00;;;;;;5029409;28;20044;-80
2023/06/12 01:29:40;;;;;;;6.10;2.47;;;18.70;91.10;;;;;;5027792;28;20417;-80
2023/06/12 01:32:16;;;;;;;5.68;2.30;;;18.70;91.20;;;;;;5032857;28;20055;-80
2023/06/12 01:34:57;;;;;;;8.02;2.50;;;18.60;91.20;;;;;;5033066;28;20041;-80
2023/06/12 01:37:31;;;;;;;4.82;2.40;;;18.60;91.40;;;;;;5032880;28;20056;-79
2023/06/12 01:39:58;;;;;;;6.75;2.35;;;18.50;91.40;;;;;;5030054;28;20048;-80
2023/06/12 01:42:26;;;;;;;5.85;2.45;;;18.50;91.50;;;;;;5032864;28;20037;-80
2023/06/12 01:44:51;;;;;;;6.07;2.47;;;18.50;91.60;;;;;;5025039;28;20060;-80
2023/06/12 01:47:18;;;;;;;5.57;2.60;;;18.40;91.70;;;;;;5032609;28;20038;-80
2023/06/12 01:49:44;;;;;;;5.03;2.20;;;18.40;91.80;;;;;;5032456;28;20033;-79
2023/06/12 01:52:09;;;;;;;4.72;2.47;;;18.30;91.90;;;;;;5048465;28;20048;-80
2023/06/12 01:54:35;;;;;;;5.80;2.55;;;18.30;92.00;;;;;;5048126;28;20037;-80
2023/06/12 01:57:01;;;;;;;3.00;2.47;;;18.20;92.00;;;;;;5047418;28;20041;-80
2023/06/12 01:59:27;;;;;;;3.35;2.53;;;18.20;92.20;;;;;;5031355;28;20052;-80
2023/06/12 02:01:52;;;;;;;3.75;2.38;;;18.10;92.30;;;;;;5047764;28;20041;-80
2023/06/12 02:04:19;;;;;;;4.13;2.78;;;17.90;92.50;;;;;;5031460;28;20091;-80
2023/06/12 02:06:45;;;;;;;4.70;2.80;;;17.80;92.70;;;;;;5031390;28;20045;-80
2023/06/12 02:09:11;;;;;;;6.68;2.63;;;17.80;92.80;;;;;;5047942;28;20064;-80
2023/06/12 02:11:36;;;;;;;4.75;2.50;;;17.60;93.00;;;;;;5047563;28;20091;-82
2023/06/12 02:14:02;;;;;;;4.63;3.00;;;17.50;93.10;;;;;;5025892;28;20044;-80
2023/06/12 02:16:27;;;;;;;5.78;2.60;;;17.40;93.30;;;;;;5045112;28;20493;-79
2023/06/12 02:18:53;;;;;;;4.78;2.50;;;17.30;93.50;;;;;;5030753;28;20083;-80
2023/06/12 02:21:19;;;;;;;7.45;2.65;;;17.30;93.70;;;;;;5047829;28;20128;-80
2023/06/12 02:23:44;;;;;;;5.15;2.55;;;17.20;94.00;;;;;;5046940;28;20064;-80
2023/06/12 02:26:10;;;;;;;4.78;2.30;;;17.20;94.20;;;;;;5047511;28;20034;-80
2023/06/12 02:28:36;;;;;;;4.53;2.65;;;17.20;94.50;;;;;;5047767;28;20048;-80
2023/06/12 02:31:03;;;;;;;6.05;2.88;;;17.10;94.70;;;;;;5031653;28;20077;-80
2023/06/12 02:33:30;;;;;;;4.97;2.55;;;17.10;94.90;;;;;;5030065;28;20034;-80
2023/06/12 02:35:55;;;;;;;8.85;2.80;;;17.10;95.10;;;;;;5031067;28;20045;-80
2023/06/12 02:38:21;;;;;;;8.25;2.72;;;17.00;95.10;;;;;;5031104;28;20041;-81
2023/06/12 02:40:46;;;;;;;4.30;2.63;;;17.00;95.20;;;;;;5034244;28;20048;-80
2023/06/12 02:43:12;;;;;;;4.88;2.65;;;16.90;95.30;;;;;;5051181;28;20033;-80
2023/06/12 02:45:37;;;;;;;4.63;2.60;;;16.80;95.40;;;;;;5051558;28;20116;-80
2023/06/12 02:48:03;;;;;;;5.18;2.40;;;16.80;95.50;;;;;;5051597;28;20052;-82
2023/06/12 02:50:28;;;;;;;5.88;2.63;;;16.70;95.70;;;;;;5034169;28;20119;-80
2023/06/12 02:52:54;;;;;;;5.60;2.80;;;16.60;96.00;;;;;;5050484;28;20040;-82
2023/06/12 02:55:20;;;;;;;5.75;2.78;;;16.60;96.20;;;;;;5050962;28;20401;-80
2023/06/12 02:57:45;;;;;;;5.07;2.38;;;16.50;96.30;;;;;;5050922;28;20120;-81
2023/06/12 03:00:13;;;;;;;6.13;2.70;;;16.50;96.50;;;;;;5050887;28;20449;-80
2023/06/12 03:02:42;;;;;;;6.22;3.20;;;16.50;96.70;;;;;;5051242;28;20049;-80
2023/06/12 03:05:12;;;;;;;3.63;2.63;;;16.50;96.90;;;;;;5035258;28;20059;-81
2023/06/12 03:07:40;;;;;;;5.10;2.88;;;16.40;97.00;;;;;;5051772;28;20433;-80
2023/06/12 03:10:06;;;;;;;5.28;2.80;;;16.40;97.50;;;;;;5034565;28;20051;-80
2023/06/12 03:12:31;;;;;;;6.18;2.90;;;16.40;97.50;;;;;;5034569;28;20040;-80
2023/06/12 03:14:58;;;;;;;5.07;3.03;;;16.30;97.80;;;;;;5050863;28;20045;-80
2023/06/12 03:17:23;;;;;;;4.32;2.63;;;16.30;98.20;;;;;;5050601;28;20051;-79
2023/06/12 03:19:49;;;;;;;6.03;2.65;;;16.30;98.40;;;;;;5026368;28;20407;-80
2023/06/12 03:22:14;;;;;;;6.53;3.00;;;16.30;98.70;;;;;;5034302;28;20080;-80
2023/06/12 03:24:40;;;;;;;5.57;2.80;;;16.30;98.90;;;;;;5051281;28;20041;-80
2023/06/12 03:27:08;;;;;;;4.72;2.90;;;16.20;99.10;;;;;;5034748;28;20049;-79
2023/06/12 03:29:34;;;;;;;3.78;2.72;;;16.20;99.20;;;;;;5034722;28;20041;-80
2023/06/12 03:31:59;;;;;;;6.70;2.80;;;16.10;99.40;;;;;;5028824;28;20049;-80
2023/06/12 03:34:26;;;;;;;7.28;3.67;;;16.10;99.70;;;;;;5031563;28;20045;-79
2023/06/12 03:36:51;;;;;;;6.63;3.10;;;16.00;99.90;;;;;;5034053;28;20053;-80
2023/06/12 03:39:17;;;;;;;5.45;2.83;;;16.00;99.90;;;;;;5050355;28;20124;-80
2023/06/12 03:41:57;;;;;;;5.38;3.20;;;16.00;99.90;;;;;;5050253;28;20132;-80
2023/06/12 03:44:23;;;;;;;5.43;2.92;;;16.00;99.90;;;;;;5033669;28;20504;-81
2023/06/12 03:46:49;;;;;;;6.10;2.97;;;16.00;99.90;;;;;;5033075;28;20034;-80
2023/06/12 03:49:15;;;;;;;5.85;3.10;;;16.00;99.90;;;;;;5033687;28;20037;-80
2023/06/12 03:51:41;;;;;;;8.00;3.20;;;16.00;99.90;;;;;;5032878;28;20059;-81
2023/06/12 03:54:07;;;;;;;5.80;2.63;;;16.00;99.90;;;;;;5050074;28;20124;-80
2023/06/12 03:56:33;;;;;;;5.88;2.97;;;16.00;99.90;;;;;;5050076;28;20057;-80
2023/06/12 03:58:59;;;;;;;8.70;3.08;;;16.00;99.90;;;;;;5049936;28;20045;-80
2023/06/12 04:01:24;;;;;;;5.00;2.92;;;16.00;99.90;;;;;;5033472;28;20045;-80
2023/06/12 04:03:51;;;;;;;6.00;3.10;;;16.10;99.90;;;;;;5025294;28;20132;-80
2023/06/12 04:06:16;;;;;;;5.72;2.97;;;16.10;99.90;;;;;;5033326;28;20052;-79
2023/06/12 04:08:44;;;;;;;5.60;3.65;;;16.10;99.90;;;;;;5049417;28;20056;-79
2023/06/12 04:11:13;;;;;;;5.97;3.15;;;16.20;99.90;;;;;;5033101;28;20045;-80
2023/06/12 04:13:39;;;;;;;6.88;3.40;;;16.20;99.90;;;;;;5049068;28;20044;-79
2023/06/12 04:16:05;;;;;;;6.75;2.95;;;16.20;99.90;;;;;;5049397;28;20041;-80
2023/06/12 04:18:30;;;;;;;7.43;3.30;;;16.30;99.90;;;;;;5032377;28;20042;-80
2023/06/12 04:20:57;;;;;;;6.68;3.03;;;16.40;99.90;;;;;;5033136;28;20078;-80
2023/06/12 04:23:29;;;;;;;7.40;3.65;;;16.40;99.90;;;;;;5033324;28;20041;-80
2023/06/12 04:26:05;;;;;;;5.18;2.88;;;16.50;99.90;;;;;;5025581;28;20163;-79
2023/06/12 04:28:35;;;;;;;4.53;3.25;;;16.60;99.90;;;;;;5032476;28;20045;-80
2023/06/12 04:31:02;;;;;;;7.55;3.22;;;16.60;99.90;;;;;;5032953;28;20440;-80
2023/06/12 04:33:32;;;;;;;6.60;3.70;;;16.70;99.90;;;;;;5032776;28;20030;-80
2023/06/12 04:35:58;;;;;;;6.63;3.50;;;16.70;99.90;;;;;;5032411;28;20037;-79
2023/06/12 04:38:25;;;;;;;9.07;3.60;;;16.80;99.90;;;;;;5032484;28;20454;-80
2023/06/12 04:40:52;;;;;;;5.60;3.50;;;16.90;99.90;;;;;;5024284;28;20366;-80
2023/06/12 04:43:21;;;;;;;7.93;3.60;;;16.90;99.90;;;;;;5032270;28;20086;-80
2023/06/12 04:45:47;;;;;;;7.28;3.60;;;17.00;99.90;;;;;;5049206;28;20041;-80
2023/06/12 04:48:13;;;;;;;7.57;3.42;;;17.10;99.90;;;;;;5032036;28;20171;-80
2023/06/12 04:50:39;;;;;;;5.45;3.40;;;17.10;99.90;;;;;;5048725;28;20120;-80
2023/06/12 04:53:06;;;;;;;7.10;3.70;;;17.20;99.90;;;;;;5048838;28;20344;-80
2023/06/12 04:55:32;;;;;;;7.25;3.80;;;17.30;99.90;;;;;;5048732;28;20385;-79
2023/06/12 04:57:57;;;;;;;6.82;3.33;;;17.40;99.90;;;;;;5048635;28;20045;-80
2023/06/12 05:00:25;;;;;;;6.30;3.50;;;17.40;99.90;;;;;;5031869;28;20136;-80
2023/06/12 05:02:53;;;;;;;9.90;3.85;;;17.50;99.90;;;;;;5030877;28;20041;-79
2023/06/12 05:05:19;;;;;;;6.25;3.63;;;17.50;99.90;;;;;;5048808;28;20033;-80
2023/06/12 05:07:45;;;;;;;6.70;3.30;;;17.60;99.90;;;;;;5031744;28;20099;-80
2023/06/12 05:10:15;;;;;;;8.27;4.13;;;17.70;99.90;;;;;;5032226;28;20042;-81
2023/06/12 05:12:40;;;;;;;5.93;3.60;;;17.80;99.90;;;;;;5031754;28;20152;-79
2023/06/12 05:15:07;;;;;;;8.20;3.47;;;17.90;99.90;;;;;;5031542;28;20473;-81
2023/06/12 05:17:33;;;;;;;9.32;3.70;;;18.00;99.90;;;;;;5031885;28;20408;-80
2023/06/12 05:19:58;;;;;;;8.07;3.30;;;18.10;99.90;;;;;;5048327;28;20043;-81
2023/06/12 05:22:24;;;;;;;8.18;3.97;;;18.20;99.90;;;;;;5047822;28;20037;-80
2023/06/12 05:24:50;;;;;;;12.65;4.20;;;18.30;99.90;;;;;;5049145;28;20083;-81
2023/06/12 05:27:15;;;;;;;5.07;3.33;;;18.30;99.90;;;;;;5031663;28;20041;-79
2023/06/12 05:29:41;;;;;;;6.50;3.30;;;18.40;99.90;;;;;;5048039;28;20049;-80
2023/06/12 05:32:07;;;;;;;10.10;3.58;;;18.40;99.90;;;;;;5031126;28;20033;-79
2023/06/12 05:34:33;;;;;;;5.15;3.40;;;18.50;99.90;;;;;;5047712;28;20046;-80
2023/06/12 05:36:59;;;;;;;8.10;3.88;;;18.60;99.90;;;;;;5046917;28;20056;-80
2023/06/12 05:39:24;;;;;;;6.30;3.45;;;18.70;99.90;;;;;;5030534;28;20532;-80
2023/06/12 05:41:50;;;;;;;8.48;3.92;;;18.70;99.90;;;;;;5043464;28;20033;-79
2023/06/12 05:44:15;;;;;;;6.90;3.65;;;18.80;99.90;;;;;;5044869;28;20785;-79
2023/06/12 05:46:41;;;;;;;6.93;3.35;;;18.90;99.90;;;;;;5028391;28;20428;-79
2023/06/12 05:49:07;;;;;;;7.00;4.20;;;19.00;99.90;;;;;;5029310;28;20057;-80
2023/06/12 05:51:33;;;;;;;6.57;3.70;;;19.00;99.90;;;;;;5028127;28;20029;-81
2023/06/12 05:53:58;;;;;;;8.25;3.63;;;19.10;99.90;;;;;;5044943;28;20578;-81
2023/06/12 05:56:24;;;;;;;8.98;3.75;;;19.10;99.90;;;;;;5045092;28;20128;-80
2023/06/12 05:58:50;;;;;;;10.45;4.22;;;19.20;99.90;;;;;;5021207;28;20108;-79
2023/06/12 06:01:21;;;;;;;6.75;3.80;;;19.40;99.90;;;;;;5029377;28;20484;-81
2023/06/12 06:03:48;;;;;;;8.68;4.78;;;19.40;99.90;;;;;;5046174;28;20045;-79
2023/06/12 06:06:15;;;;;;;7.78;4.18;;;19.50;99.90;;;;;;5046045;28;20041;-78
2023/06/12 06:08:40;;;;;;;6.63;3.35;;;19.60;99.90;;;;;;5030546;28;20464;-80
2023/06/12 06:11:06;;;;;;;5.95;3.88;;;19.70;99.90;;;;;;5029063;28;20033;-79
2023/06/12 06:13:32;;;;;;;8.90;3.92;;;19.80;99.90;;;;;;5044856;28;20046;-79
2023/06/12 06:15:57;;;;;;;7.63;4.03;;;19.90;99.90;;;;;;5041614;28;20113;-79
2023/06/12 06:18:23;;;;;;;7.70;4.00;;;19.90;99.90;;;;;;5026771;28;20063;-79
2023/06/12 06:20:48;;;;;;;5.80;3.63;;;20.00;99.90;;;;;;5030033;28;20141;-79
2023/06/12 06:23:14;;;;;;;10.15;4.35;;;20.10;99.90;;;;;;5030087;28;20152;-79
2023/06/12 06:25:40;;;;;;;5.60;3.55;;;20.20;99.90;;;;;;5030227;28;20042;-79
2023/06/12 06:28:06;;;;;;;8.63;3.60;;;20.30;99.90;;;;;;5046754;28;20033;-80
2023/06/12 06:30:31;;;;;;;7.35;4.15;;;20.50;99.90;;;;;;5030223;28;20088;-79
2023/06/12 06:32:57;;;;;;;6.22;4.10;;;20.60;99.90;;;;;;5047054;28;20116;-79
2023/06/12 06:35:23;;;;;;;7.40;4.00;;;20.70;99.90;;;;;;5046908;28;20037;-80
2023/06/12 06:37:49;;;;;;;6.13;3.67;;;20.80;99.90;;;;;;5029966;28;20404;-79
2023/06/12 06:40:15;;;;;;;6.53;3.92;;;20.90;99.90;;;;;;5030174;28;20040;-80
2023/06/12 06:42:41;;;;;;;8.57;3.80;;;21.00;99.90;;;;;;5029438;28;20060;-79
2023/06/12 06:45:07;;;;;;;7.47;4.00;;;21.00;99.90;;;;;;5030023;28;20060;-79
2023/06/12 06:47:33;;;;;;;8.38;4.20;;;21.10;99.90;;;;;;5046115;28;20041;-78
2023/06/12 06:49:59;;;;;;;8.80;3.90;;;21.20;99.90;;;;;;5029720;28;20037;-78
2023/06/12 06:52:26;;;;;;;9.85;3.80;;;21.30;99.90;;;;;;5046289;28;20037;-78
2023/06/12 06:54:52;;;;;;;9.00;4.43;;;21.40;99.90;;;;;;5029713;28;20038;-79
2023/06/12 06:57:18;;;;;;;14.23;4.68;;;21.50;99.90;;;;;;5046293;28;20120;-79
2023/06/12 06:59:44;;;;;;;7.40;4.35;;;21.60;99.90;;;;;;5045986;28;20091;-79
2023/06/12 07:02:09;;;;;;;6.03;4.07;;;21.60;99.90;;;;;;5029343;28;20080;-78
2023/06/12 07:04:35;;;;;;;6.93;4.28;;;21.80;99.90;;;;;;5019761;28;20037;-80
2023/06/12 07:07:01;;;;;;;7.53;4.13;;;21.90;99.90;;;;;;5029776;28;20041;-80
2023/06/12 07:09:26;;;;;;;7.30;3.85;;;22.00;99.90;;;;;;5038398;28;20054;-79
2023/06/12 07:11:52;;;;;;;10.85;4.57;;;22.10;99.90;;;;;;5044244;28;20113;-77
2023/06/12 07:14:17;;;;;;;6.40;3.95;;;22.30;99.90;;;;;;5030093;28;20571;-78
2023/06/12 07:16:44;;;;;;;7.38;3.85;;;22.30;99.90;;;;;;5029158;28;20409;-79
2023/06/12 07:19:10;;;;;;;11.77;4.20;;;22.40;99.90;;;;;;5044394;28;20045;-78
2023/06/12 07:21:36;;;;;;;6.63;3.83;;;22.40;99.90;;;;;;5029591;28;20183;-79
2023/06/12 07:24:03;;;;;;;7.70;3.95;;;22.60;99.90;;;;;;5028503;28;20116;-79
2023/06/12 07:26:28;;;;;;;6.95;4.00;;;22.60;99.90;;;;;;5030147;28;20037;-78
2023/06/12 07:28:54;;;;;;;5.78;4.00;;;22.80;99.90;;;;;;5032094;28;20462;-79
2023/06/12 07:31:20;;;;;;;15.00;4.60;;;22.80;99.90;;;;;;5049256;28;20068;-79
2023/06/12 07:33:46;;;;;;;6.80;3.97;;;22.90;99.90;;;;;;5032795;28;20486;-78
2023/06/12 07:36:12;;;;;;;7.35;4.40;;;23.00;99.90;;;;;;5032913;28;20040;-79
2023/06/12 07:38:39;;;;;;;6.00;3.92;;;23.00;99.90;;;;;;5032790;28;20034;-79
2023/06/12 07:41:04;;;;;;;5.53;3.90;;;23.20;99.90;;;;;;5032780;28;20527;-80
2023/06/12 07:43:34;;;;;;;8.00;4.10;;;23.30;99.90;;;;;;5033099;28;20072;-78
2023/06/12 07:46:03;;;;;;;6.55;4.10;;;23.40;99.90;;;;;;5048856;28;20068;-79
2023/06/12 07:48:28;;;;;;;6.20;4.30;;;23.50;99.90;;;;;;5049538;28;20084;-80
2023/06/12 07:50:54;;;;;;;10.35;3.92;;;23.60;99.90;;;;;;5049205;28;20073;-77
2023/06/12 07:53:23;;;;;;;8.63;3.80;;;23.80;99.90;;;;;;5032669;28;20033;-78
2023/06/12 07:55:51;;;;;;;9.85;3.80;;;23.80;99.90;;;;;;5049292;28;20045;-78
2023/06/12 07:58:17;;;;;;;9.23;5.00;;;24.00;99.90;;;;;;5048044;28;20077;-79
2023/06/12 08:00:42;;;;;;;7.97;4.25;;;24.00;99.90;;;;;;5048600;28;20539;-77
2023/06/12 08:03:08;;;;;;;8.25;4.07;;;24.10;99.90;;;;;;5032539;28;20053;-77
2023/06/12 08:05:35;;;;;;;7.63;4.53;;;24.30;99.90;;;;;;5031947;28;20037;-78
2023/06/12 08:08:01;;;;;;;10.00;4.60;;;24.30;99.90;;;;;;5032247;28;20152;-78
2023/06/12 08:10:27;;;;;;;8.90;4.43;;;24.40;99.90;;;;;;5031942;28;20045;-78
2023/06/12 08:12:52;;;;;;;5.80;3.97;;;24.50;99.90;;;;;;5048377;28;20037;-78
2023/06/12 08:15:19;;;;;;;10.13;4.28;;;24.50;99.90;;;;;;5025422;28;20038;-78
2023/06/12 08:17:46;;;;;;;10.27;4.43;;;24.50;99.90;;;;;;5015206;28;20400;-78
2023/06/12 08:20:13;;;;;;;7.28;4.30;;;24.60;99.90;;;;;;5031853;28;20116;-78
2023/06/12 08:22:39;;;;;;;7.13;4.18;;;24.70;99.90;;;;;;5015381;28;20033;-77
2023/06/12 08:25:06;;;;;;;7.70;4.10;;;24.80;99.90;;;;;;5031839;28;20044;-77
2023/06/12 08:27:33;;;;;;;9.32;3.92;;;24.90;99.90;;;;;;5042740;28;20029;-77
2023/06/12 08:29:58;;;;;;;7.25;4.45;;;24.90;99.90;;;;;;5047694;28;20037;-77
2023/06/12 08:32:24;;;;;;;9.38;3.80;;;25.00;99.90;;;;;;5047675;28;20038;-77
2023/06/12 08:34:50;;;;;;;5.97;4.28;;;25.00;99.90;;;;;;5029969;28;20043;-77
2023/06/12 08:37:17;;;;;;;7.65;3.97;;;25.10;99.90;;;;;;5026628;28;20091;-78
2023/06/12 08:39:43;;;;;;;6.95;3.90;;;25.10;99.90;;;;;;5047705;28;20045;-75
2023/06/12 08:42:10;;;;;;;10.15;4.25;;;25.20;99.90;;;;;;5026182;28;20124;-77
2023/06/12 08:44:40;;;;;;;8.32;4.50;;;25.20;99.90;;;;;;5031498;28;20129;-77
2023/06/12 08:47:08;;;;;;;7.28;4.10;;;25.20;99.90;;;;;;5044073;28;20478;-78
2023/06/12 08:49:34;;;;;;;7.82;4.32;;;25.20;99.70;;;;;;5047957;28;20083;-78
2023/06/12 08:52:02;;;;;;;5.80;4.30;;;25.30;99.80;;;;;;5020660;28;20500;-77
2023/06/12 08:54:29;;;;;;;7.53;4.18;;;25.30;99.80;;;;;;5048047;28;20455;-76
2023/06/12 08:56:57;;;;;;;6.32;3.60;;;25.40;99.60;;;;;;5031111;28;20049;-75
2023/06/12 08:59:22;;;;;;;5.68;4.00;;;25.30;99.40;;;;;;5047797;28;20501;-77
2023/06/12 09:01:53;;;;;;;7.70;4.28;;;25.40;99.40;;;;;;5030715;28;20087;-79
2023/06/12 09:04:41;;;;;;;12.10;4.72;;;25.40;99.30;;;;;;5031099;28;20501;-77
2023/06/12 09:07:07;;;;;;;8.18;4.47;;;25.50;99.40;;;;;;5031009;28;20049;-78
2023/06/12 09:09:37;;;;;;;10.25;3.90;;;25.50;99.40;;;;;;5026931;28;20042;-76
2023/06/12 09:12:05;;;;;;;5.22;3.95;;;25.50;99.30;;;;;;5030657;28;20041;-76
2023/06/12 09:14:35;;;;;;;6.10;4.20;;;25.60;99.20;;;;;;5030754;28;20103;-76
2023/06/12 09:17:04;;;;;;;7.53;4.38;;;25.70;99.00;;;;;;5047399;28;20519;-76
2023/06/12 09:19:44;;;;;;;8.65;4.07;;;25.70;98.70;;;;;;5047382;28;20509;-78
2023/06/12 09:22:11;;;;;;;12.00;3.90;;;25.70;98.50;;;;;;5025299;28;20467;-77
2023/06/12 09:24:38;;;;;;;6.82;4.07;;;25.80;98.10;;;;;;5025374;28;20084;-75
2023/06/12 09:27:03;;;;;;;6.40;3.90;;;25.90;98.00;;;;;;5030518;28;20600;-77
2023/06/12 09:29:31;;;;;;;8.15;3.80;;;25.90;97.90;;;;;;5028176;28;20121;-77
2023/06/12 09:32:01;;;;;;;4.32;3.65;;;25.90;97.70;;;;;;5029917;28;20045;-76
2023/06/12 09:34:27;;;;;;;5.43;4.03;;;26.00;97.60;;;;;;5030279;28;20029;-77
2023/06/12 09:36:55;;;;;;;7.32;4.30;;;26.00;97.80;;;;;;5030253;28;20044;-76
2023/06/12 09:39:29;;;;;;;9.68;3.92;;;26.00;97.10;;;;;;5030315;28;20045;-76
2023/06/12 09:41:56;;;;;;;7.22;4.10;;;26.10;97.00;;;;;;5046512;28;20041;-75
2023/06/12 09:44:28;;;;;;;7.68;4.78;;;26.20;97.40;;;;;;5030196;28;20048;-75
2023/06/12 09:46:58;;;;;;;6.15;4.22;;;26.20;97.40;;;;;;5031450;28;20108;-76
2023/06/12 09:49:23;;;;;;;5.35;4.57;;;26.30;97.10;;;;;;5029941;28;20421;-76
2023/06/12 09:51:50;;;;;;;6.45;4.30;;;26.30;97.40;;;;;;5046412;28;20029;-75
2023/06/12 09:54:18;;;;;;;5.85;4.00;;;26.30;97.30;;;;;;5030126;28;20030;-76
2023/06/12 09:56:45;;;;;;;8.07;4.10;;;26.40;96.90;;;;;;5046457;28;20044;-76
2023/06/12 09:59:18;;;;;;;5.78;4.30;;;26.50;97.10;;;;;;5030181;28;20045;-76
2023/06/12 10:01:50;;;;;;;5.88;4.05;;;26.50;97.50;;;;;;5044485;28;20048;-76
2023/06/12 10:04:26;;;;;;;5.30;4.18;;;26.60;97.10;;;;;;5024811;28;20052;-75
2023/06/12 10:06:56;;;;;;;7.57;4.10;;;26.70;96.60;;;;;;5030119;28;20396;-75
2023/06/12 10:09:22;;;;;;;5.35;4.20;;;26.80;96.80;;;;;;5029854;28;20091;-76
2023/06/12 10:11:50;;;;;;;7.30;4.60;;;26.90;96.90;;;;;;5021264;28;20040;-77
2023/06/12 10:14:17;;;;;;;7.38;3.97;;;27.00;96.80;;;;;;5029744;28;20137;-77
2023/06/12 10:16:44;;;;;;;6.43;3.85;;;27.00;96.50;;;;;;5029947;28;20042;-75
2023/06/12 10:19:11;;;;;;;7.03;4.03;;;27.20;96.30;;;;;;5023798;28;20084;-76
2023/06/12 10:21:38;;;;;;;8.65;4.28;;;27.20;96.20;;;;;;5045962;28;20041;-76
2023/06/12 10:24:04;;;;;;;9.25;4.15;;;27.30;95.90;;;;;;5031052;28;20069;-75
2023/06/12 10:26:30;;;;;;;7.43;4.40;;;27.20;95.70;;;;;;5029917;28;20120;-74
2023/06/12 10:28:56;;;;;;;6.15;4.10;;;27.30;95.60;;;;;;5022321;28;20124;-76
2023/06/12 10:31:23;;;;;;;7.05;4.30;;;27.50;95.60;;;;;;5027989;28;20386;-76
2023/06/12 10:34:00;;;;;;;9.43;3.90;;;27.50;95.80;;;;;;5029463;28;20566;-76
2023/06/12 10:36:40;;;;;;;6.90;4.28;;;27.60;95.20;;;;;;5029715;28;20520;-76
2023/06/12 10:39:14;;;;;;;8.52;4.57;;;27.70;95.70;;;;;;5029445;28;20116;-76
2023/06/12 10:41:57;;;;;;;7.55;3.80;;;27.70;95.50;;;;;;5027241;28;20050;-76
2023/06/12 10:44:41;;;;;;;9.18;4.10;;;27.80;96.00;;;;;;5029600;28;20034;-75
2023/06/12 10:47:23;;;;;;;7.32;4.18;;;28.00;95.90;;;;;;5046251;28;20037;-75
2023/06/12 10:50:03;;;;;;;6.90;4.35;;;28.00;95.40;;;;;;5024745;28;20121;-76
2023/06/12 10:52:29;;;;;;;7.30;4.18;;;28.00;94.80;;;;;;5021967;28;20095;-76
2023/06/12 10:55:17;;;;;;;7.13;4.10;;;28.10;94.90;;;;;;5029331;28;20037;-76
2023/06/12 10:57:51;;;;;;;5.90;4.38;;;28.20;95.10;;;;;;5029371;28;20125;-75
2023/06/12 11:00:19;;;;;;;6.88;4.28;;;28.30;94.50;;;;;;5029243;28;20033;-75
2023/06/12 11:03:16;;;;;;;7.47;4.50;;;28.40;94.60;;;;;;5032792;28;20462;-76
2023/06/12 11:05:48;;;;;;;7.13;4.28;;;28.50;93.90;;;;;;5023784;28;20099;-77
2023/06/12 11:08:14;;;;;;;6.88;4.57;;;28.70;94.10;;;;;;5033047;28;20117;-76
2023/06/12 11:10:39;;;;;;;6.35;4.43;;;28.80;93.90;;;;;;5033290;28;20164;-76
2023/06/12 11:13:05;;;;;;;5.57;4.10;;;28.90;93.50;;;;;;5049317;28;20067;-76
2023/06/12 11:15:47;;;;;;;9.32;4.85;;;29.10;93.60;;;;;;5033065;28;20041;-75
2023/06/12 11:18:14;;;;;;;8.45;4.55;;;29.20;93.70;;;;;;5049767;28;20363;-76
2023/06/12 11:20:41;;;;;;;7.53;4.40;;;29.20;93.40;;;;;;5032572;28;20053;-75
2023/06/12 11:23:06;;;;;;;7.00;4.80;;;29.20;92.90;;;;;;5032114;28;20353;-75
2023/06/12 11:25:33;;;;;;;6.03;4.45;;;29.40;92.70;;;;;;5031843;28;20040;-75
2023/06/12 11:27:59;;;;;;;6.78;4.53;;;29.60;91.90;;;;;;5032776;28;20080;-75
2023/06/12 11:30:24;;;;;;;5.28;4.60;;;29.80;91.50;;;;;;5032844;28;20065;-77
2023/06/12 11:32:50;;;;;;;6.20;4.70;;;30.00;91.40;;;;;;5049176;28;20057;-75
2023/06/12 11:35:16;;;;;;;7.30;4.75;;;30.10;90.50;;;;;;5049106;28;20096;-76
2023/06/12 11:37:41;;;;;;;6.03;4.25;;;30.20;90.40;;;;;;5049191;28;20033;-76
2023/06/12 11:40:11;;;;;;;6.70;4.50;;;30.40;90.80;;;;;;5030585;28;20124;-76
2023/06/12 11:42:44;;;;;;;6.32;4.40;;;30.50;90.60;;;;;;5022681;28;20045;-75
2023/06/12 11:45:15;;;;;;;7.13;4.63;;;30.70;90.50;;;;;;5032523;28;20052;-75
2023/06/12 11:47:43;;;;;;;5.53;4.38;;;30.80;90.10;;;;;;5027947;28;20055;-75
2023/06/12 11:50:15;;;;;;;6.38;4.75;;;31.10;90.00;;;;;;5024608;28;20045;-75
2023/06/12 11:52:42;;;;;;;6.20;4.20;;;31.10;90.00;;;;;;5024762;28;20493;-75
2023/06/12 11:55:10;;;;;;;7.78;4.45;;;31.40;89.70;;;;;;5032121;28;20049;-75
2023/06/12 11:57:36;;;;;;;8.90;4.65;;;31.60;89.00;;;;;;5041586;28;20046;-76
2023/06/12 12:00:14;;;;;;;5.47;4.60;;;31.80;88.60;;;;;;5024130;28;20512;-75
2023/06/12 12:02:49;;;;;;;7.93;4.43;;;32.00;86.60;;;;;;5024833;28;20497;-76
2023/06/12 12:05:20;;;;;;;6.57;4.40;;;32.00;85.60;;;;;;5045532;28;20044;-76
2023/06/12 12:07:50;;;;;;;6.20;4.70;;;32.20;85.00;;;;;;5024782;28;20049;-75
2023/06/12 12:10:15;;;;;;;7.57;4.93;;;32.30;84.00;;;;;;5023558;28;20049;-76
2023/06/12 12:12:45;;;;;;;6.82;4.43;;;32.40;84.00;;;;;;5024233;28;20378;-77
2023/06/12 12:15:12;;;;;;;6.55;4.70;;;32.30;83.30;;;;;;5013074;28;20489;-76
2023/06/12 12:17:39;;;;;;;8.68;4.80;;;32.40;83.60;;;;;;5011672;28;20029;-76
2023/06/12 12:20:07;;;;;;;12.15;4.93;;;32.50;83.00;;;;;;5029141;28;20037;-75
2023/06/12 12:22:45;;;;;;;5.80;4.47;;;32.70;83.20;;;;;;5028486;28;20052;-77
2023/06/12 12:25:22;;;;;;;9.43;4.53;;;32.70;83.40;;;;;;5012741;28;20063;-76
2023/06/12 12:27:50;;;;;;;6.78;4.50;;;32.50;83.20;;;;;;5030256;28;20046;-76
2023/06/12 12:30:17;;;;;;;6.53;4.60;;;32.30;83.30;;;;;;5031336;28;20095;-76
2023/06/12 12:32:44;;;;;;;7.00;4.93;;;32.30;82.80;;;;;;5031227;28;20045;-77
2023/06/12 12:35:11;;;;;;;6.35;5.00;;;32.50;82.10;;;;;;5031567;28;20108;-76
2023/06/12 12:37:37;;;;;;;8.85;5.40;;;32.30;82.10;;;;;;5025172;28;20037;-75
2023/06/12 12:40:08;;;;;;;5.35;4.85;;;32.50;82.00;;;;;;5046869;28;20497;-77
2023/06/12 12:42:34;;;;;;;6.93;5.15;;;32.70;82.10;;;;;;5013085;28;20104;-75
2023/06/12 12:45:00;;;;;;;5.60;4.95;;;32.40;81.40;;;;;;5030120;28;20516;-77
2023/06/12 12:47:25;;;;;;;6.45;4.70;;;32.00;81.70;;;;;;5030000;28;20053;-77
2023/06/12 12:49:51;;;;;;;5.25;4.75;;;32.30;81.80;;;;;;5047889;28;20048;-76